Time;durP1;ratioP1;P1;durP2;ratioP2;P2;SDS_P1;SDS_P2;PMS_P1;PMS_P2;Temp;Humidity;BMP_temperature;BMP_pressure;BME280_temperature;BME280_humidity;BME280_pressure;Samples;Min_cycle;Max_cycle;Signal;HPM_P1;HPM_P2
2024/02/18 00:00:59;;;;;;;;;;;7.30;35.40;;;;;;5041867;28;20476;-86
2024/02/18 00:03:25;;;;;;;;;;;7.40;48.00;;;;;;5043542;28;20363;-87
2024/02/18 00:05:52;;;;;;;;;;;7.40;13.20;;;;;;5043526;28;20011;-87
2024/02/18 00:08:19;;;;;;;;;;;7.40;27.80;;;;;;5041607;28;19992;-87
2024/02/18 00:10:46;;;;;;;;;;;7.30;24.40;;;;;;5043522;28;20390;-88
2024/02/18 00:13:14;;;;;;;;;;;7.30;34.40;;;;;;5057665;28;19941;-88
2024/02/18 00:15:40;;;;;;;;;;;7.10;19.10;;;;;;5059996;28;19972;-87
2024/02/18 00:18:07;;;;;;;;;;;7.10;25.70;;;;;;5054011;28;20001;-87
2024/02/18 00:20:34;;;;;;;;;;;7.10;44.30;;;;;;5046851;28;19983;-87
2024/02/18 00:23:02;;;;;;;;;;;7.30;20.50;;;;;;5052653;28;19971;-86
2024/02/18 00:25:28;;;;;;;;;;;7.10;10.70;;;;;;5054804;28;20011;-87
2024/02/18 00:27:55;;;;;;;;;;;7.30;6.20;;;;;;5056331;28;19975;-87
2024/02/18 00:30:24;;;;;;;;;;;7.20;9.60;;;;;;5058208;28;19962;-87
2024/02/18 00:32:51;;;;;;;;;;;7.20;12.30;;;;;;5061557;28;19929;-85
2024/02/18 00:35:18;;;;;;;;;;;7.00;20.50;;;;;;5061396;28;19920;-86
2024/02/18 00:37:44;;;;;;;;;;;7.10;31.80;;;;;;5061409;28;19947;-86
2024/02/18 00:40:11;;;;;;;;;;;7.00;54.80;;;;;;5060300;28;19955;-87
2024/02/18 00:42:38;;;;;;;;;;;7.20;61.50;;;;;;5059763;28;20004;-88
2024/02/18 00:45:05;;;;;;;;;;;7.20;57.70;;;;;;5068975;22;19986;-86
2024/02/18 00:47:33;;;;;;;;;;;7.20;59.50;;;;;;5043563;28;19945;-87
2024/02/18 00:50:00;;;;;;;;;;;7.00;63.30;;;;;;5043347;28;20014;-87
2024/02/18 00:52:27;;;;;;;;;;;7.40;95.00;;;;;;5043456;28;19941;-87
2024/02/18 00:54:54;;;;;;;;;;;7.10;76.00;;;;;;5045069;28;19921;-87
2024/02/18 00:57:20;;;;;;;;;;;6.50;86.10;;;;;;5054795;28;19939;-87
2024/02/18 00:59:47;;;;;;;;;;;7.00;99.90;;;;;;5044781;28;19921;-87
2024/02/18 01:02:14;;;;;;;;;;;6.80;99.90;;;;;;5052282;28;19953;-87
2024/02/18 01:04:42;;;;;;;;;;;6.80;99.90;;;;;;5049766;28;20013;-86
2024/02/18 01:07:09;;;;;;;;;;;7.10;99.90;;;;;;5047224;28;20034;-86
2024/02/18 01:09:36;;;;;;;;;;;7.10;99.90;;;;;;5048934;28;19963;-87
2024/02/18 01:12:03;;;;;;;;;;;7.00;99.90;;;;;;5046785;28;19925;-88
2024/02/18 01:14:30;;;;;;;;;;;7.10;99.90;;;;;;5049286;28;19986;-87
2024/02/18 01:16:58;;;;;;;;;;;7.00;99.90;;;;;;5052617;28;19966;-88
2024/02/18 01:19:25;;;;;;;;;;;7.10;99.90;;;;;;5045264;28;20020;-87
2024/02/18 01:21:53;;;;;;;;;;;7.10;99.90;;;;;;5044166;28;19964;-86
2024/02/18 01:24:20;;;;;;;;;;;7.10;99.90;;;;;;5046901;28;19957;-87
2024/02/18 01:26:46;;;;;;;;;;;6.90;99.90;;;;;;5048115;28;20050;-87
2024/02/18 01:29:13;;;;;;;;;;;7.10;99.90;;;;;;5046641;28;19946;-88
2024/02/18 01:31:40;;;;;;;;;;;7.00;99.90;;;;;;5047859;28;19968;-87
2024/02/18 01:34:06;;;;;;;;;;;6.90;99.90;;;;;;5046319;28;19964;-87
2024/02/18 01:36:33;;;;;;;;;;;6.80;99.90;;;;;;5046303;28;20383;-87
2024/02/18 01:39:01;;;;;;;;;;;7.10;99.90;;;;;;5049280;28;19972;-87
2024/02/18 01:41:28;;;;;;;;;;;7.00;99.90;;;;;;5046860;28;20337;-86
2024/02/18 01:43:55;;;;;;;;;;;7.10;99.90;;;;;;5050796;28;19961;-87
2024/02/18 01:46:21;;;;;;;;;;;7.30;99.90;;;;;;5047673;28;19946;-88
2024/02/18 01:48:49;;;;;;;;;;;7.00;99.90;;;;;;5047947;28;19987;-87
2024/02/18 01:51:15;;;;;;;;;;;7.00;99.90;;;;;;5054148;28;19963;-87
2024/02/18 01:53:43;;;;;;;;;;;6.90;99.90;;;;;;5050009;28;19958;-88
2024/02/18 01:56:12;;;;;;;;;;;6.80;99.90;;;;;;5051542;28;20010;-88
2024/02/18 01:58:39;;;;;;;;;;;6.80;99.90;;;;;;5059184;28;19932;-87
2024/02/18 02:01:06;;;;;;;;;;;6.80;99.90;;;;;;5058519;28;19905;-87
2024/02/18 02:03:33;;;;;;;;;;;6.80;99.90;;;;;;5059023;28;19984;-86
2024/02/18 02:06:01;;;;;;;;;;;6.80;99.90;;;;;;5051872;28;19939;-86
2024/02/18 02:08:28;;;;;;;;;;;6.90;99.90;;;;;;5049387;28;19921;-87
2024/02/18 02:10:55;;;;;;;;;;;6.90;99.90;;;;;;5049413;28;19956;-87
2024/02/18 02:13:23;;;;;;;;;;;7.00;99.90;;;;;;5048306;28;19956;-87
2024/02/18 02:15:50;;;;;;;;;;;7.10;99.90;;;;;;5049249;28;19921;-87
2024/02/18 02:18:16;;;;;;;;;;;7.00;99.90;;;;;;5046732;28;19958;-86
2024/02/18 02:20:43;;;;;;;;;;;7.00;99.90;;;;;;5048949;28;20015;-87
2024/02/18 02:23:11;;;;;;;;;;;6.90;99.90;;;;;;5047766;28;19941;-86
2024/02/18 02:25:38;;;;;;;;;;;7.00;99.90;;;;;;5049463;28;20073;-87
2024/02/18 02:30:51;;;;;;;;;;;7.00;99.90;;;;;;4993637;28;19943;-86
2024/02/18 02:33:18;;;;;;;;;;;6.80;99.90;;;;;;5059423;28;19984;-86
2024/02/18 02:35:47;;;;;;;;;;;;;;;;;;5059540;28;19925;-85
2024/02/18 02:38:14;;;;;;;;;;;6.90;99.90;;;;;;5059312;28;19944;-84
2024/02/18 02:40:41;;;;;;;;;;;6.90;99.90;;;;;;5059373;28;19920;-86
2024/02/18 02:43:10;;;;;;;;;;;6.60;99.90;;;;;;5059144;28;19949;-85
2024/02/18 02:45:37;;;;;;;;;;;6.70;99.90;;;;;;5059214;28;19943;-86
2024/02/18 02:48:05;;;;;;;;;;;6.60;99.90;;;;;;5056099;28;19986;-86
2024/02/18 02:50:32;;;;;;;;;;;6.70;99.90;;;;;;5053040;28;19957;-87
2024/02/18 02:52:58;;;;;;;;;;;6.60;99.90;;;;;;5057849;28;19940;-86
2024/02/18 02:55:25;;;;;;;;;;;6.60;99.90;;;;;;5055884;28;19965;-87
2024/02/18 02:57:53;;;;;;;;;;;6.60;99.90;;;;;;5054064;28;19949;-86
2024/02/18 03:00:20;;;;;;;;;;;6.60;99.90;;;;;;5049883;28;19975;-87
2024/02/18 03:02:47;;;;;;;;;;;6.70;99.90;;;;;;5053360;28;19928;-88
2024/02/18 03:05:15;;;;;;;;;;;6.60;99.90;;;;;;5051772;28;19966;-89
2024/02/18 03:07:41;;;;;;;;;;;6.80;99.90;;;;;;5048907;28;19941;-86
2024/02/18 03:10:10;;;;;;;;;;;6.60;99.90;;;;;;5043036;28;19940;-88
2024/02/18 03:12:36;;;;;;;;;;;6.50;99.90;;;;;;5042657;28;20050;-88
2024/02/18 03:15:03;;;;;;;;;;;6.60;99.90;;;;;;5043205;28;20002;-88
2024/02/18 03:17:30;;;;;;;;;;;6.60;99.90;;;;;;5043216;28;19921;-88
2024/02/18 03:19:57;;;;;;;;;;;6.60;99.90;;;;;;5043515;28;19944;-88
2024/02/18 03:22:25;;;;;;;;;;;6.60;99.90;;;;;;5056673;28;19945;-87
2024/02/18 03:24:52;;;;;;;;;;;7.00;99.90;;;;;;5058895;28;19979;-87
2024/02/18 03:27:18;;;;;;;;;;;6.40;99.90;;;;;;5058725;28;19925;-85
2024/02/18 03:29:45;;;;;;;;;;;6.50;99.90;;;;;;5048970;28;19984;-89
2024/02/18 03:32:12;;;;;;;;;;;6.40;99.90;;;;;;5050797;28;19951;-87
2024/02/18 03:34:39;;;;;;;;;;;5.80;99.90;;;;;;5055288;28;19944;-88
2024/02/18 03:37:05;;;;;;;;;;;6.50;99.90;;;;;;5058607;28;19978;-86
2024/02/18 03:39:34;;;;;;;;;;;6.30;99.90;;;;;;5058016;28;19917;-87
2024/02/18 03:42:00;;;;;;;;;;;6.50;1.00;;;;;;5048264;28;19941;-87
2024/02/18 03:44:27;;;;;;;;;;;6.30;1.00;;;;;;5045557;28;20082;-87
2024/02/18 03:46:54;;;;;;;;;;;6.20;1.00;;;;;;5044713;28;19994;-87
2024/02/18 03:49:21;;;;;;;;;;;5.90;1.00;;;;;;5054297;28;19927;-85
2024/02/18 03:51:47;;;;;;;;;;;6.10;1.00;;;;;;5048134;28;20006;-87
2024/02/18 03:54:14;;;;;;;;;;;6.10;1.00;;;;;;5047115;28;19955;-88
2024/02/18 03:56:42;;;;;;;;;;;5.90;1.00;;;;;;5044355;28;20005;-87
2024/02/18 03:59:10;;;;;;;;;;;6.00;1.00;;;;;;5046279;28;19967;-87
2024/02/18 04:01:37;;;;;;;;;;;5.90;1.00;;;;;;5047476;28;19943;-88
2024/02/18 04:04:03;;;;;;;;;;;5.80;1.00;;;;;;5056717;28;20003;-87
2024/02/18 04:06:30;;;;;;;;;;;5.80;1.00;;;;;;5056506;28;19971;-87
2024/02/18 04:08:57;;;;;;;;;;;5.80;1.00;;;;;;5053004;28;20000;-88
2024/02/18 04:11:23;;;;;;;;;;;5.80;1.00;;;;;;5053229;28;19955;-87
2024/02/18 04:13:51;;;;;;;;;;;6.00;99.90;;;;;;5053121;28;20018;-89
2024/02/18 04:16:18;;;;;;;;;;;5.80;1.00;;;;;;5050621;28;20120;-86
2024/02/18 04:18:45;;;;;;;;;;;5.70;99.90;;;;;;5052247;28;19973;-88
2024/02/18 04:21:11;;;;;;;;;;;5.80;1.00;;;;;;5047843;28;19963;-87
2024/02/18 04:23:38;;;;;;;;;;;5.70;1.00;;;;;;5043546;28;20080;-86
2024/02/18 04:26:05;;;;;;;;;;;5.60;1.00;;;;;;5060774;28;19926;-87
2024/02/18 04:28:32;;;;;;;;;;;5.60;1.00;;;;;;5060888;28;19912;-88
2024/02/18 04:31:00;;;;;;;;;;;5.60;1.00;;;;;;5060374;28;19925;-87
2024/02/18 04:33:28;;;;;;;;;;;;;;;;;;5053906;28;19994;-87
2024/02/18 04:35:54;;;;;;;;;;;5.70;1.00;;;;;;5044347;28;19984;-88
2024/02/18 04:38:21;;;;;;;;;;;5.50;1.00;;;;;;5043420;28;20074;-88
2024/02/18 04:40:48;;;;;;;;;;;;;;;;;;5042984;28;19983;-88
2024/02/18 04:43:16;;;;;;;;;;;;;;;;;;5041654;28;19965;-88
2024/02/18 04:45:45;;;;;;;;;;;;;;;;;;5042145;28;19971;-88
2024/02/18 04:48:13;;;;;;;;;;;;;;;;;;5054069;28;19948;-86
2024/02/18 04:50:41;;;;;;;;;;;;;;;;;;5041446;28;20008;-87
2024/02/18 04:53:09;;;;;;;;;;;;;;;;;;5041927;28;19959;-87
2024/02/18 04:55:36;;;;;;;;;;;;;;;;;;5040703;28;19982;-88
2024/02/18 04:58:04;;;;;;;;;;;;;;;;;;5041024;28;19989;-88
2024/02/18 05:00:32;;;;;;;;;;;5.30;1.00;;;;;;5040964;28;19947;-88
2024/02/18 05:02:59;;;;;;;;;;;;;;;;;;5041110;28;20341;-86
2024/02/18 05:05:27;;;;;;;;;;;;;;;;;;5048828;28;19983;-87
2024/02/18 05:07:53;;;;;;;;;;;5.20;1.00;;;;;;5052043;28;20011;-88
2024/02/18 05:10:21;;;;;;;;;;;5.30;1.00;;;;;;5041594;28;20094;-87
2024/02/18 05:12:47;;;;;;;;;;;5.40;22.50;;;;;;5041298;28;20314;-87
2024/02/18 05:15:14;;;;;;;;;;;5.40;1.00;;;;;;5040323;28;19961;-88
2024/02/18 05:17:42;;;;;;;;;;;5.30;1.00;;;;;;5040815;28;19940;-87
2024/02/18 05:20:09;;;;;;;;;;;5.60;1.00;;;;;;5047999;28;19941;-87
2024/02/18 05:22:38;;;;;;;;;;;5.20;1.00;;;;;;5051465;28;19953;-87
2024/02/18 05:25:05;;;;;;;;;;;5.20;1.00;;;;;;5040819;28;19981;-87
2024/02/18 05:27:32;;;;;;;;;;;5.10;1.00;;;;;;5041027;28;19987;-88
2024/02/18 05:30:00;;;;;;;;;;;;;;;;;;5040864;28;20428;-88
2024/02/18 05:32:28;;;;;;;;;;;;;;;;;;5041408;28;20062;-87
2024/02/18 05:34:56;;;;;;;;;;;5.30;1.00;;;;;;5041187;28;19932;-87
2024/02/18 05:37:24;;;;;;;;;;;;;;;;;;5040640;28;19944;-87
2024/02/18 05:39:51;;;;;;;;;;;5.10;1.00;;;;;;5043895;28;19962;-87
2024/02/18 05:42:17;;;;;;;;;;;5.20;1.00;;;;;;5042446;28;19946;-87
2024/02/18 05:44:44;;;;;;;;;;;5.10;1.00;;;;;;5042145;28;19986;-86
2024/02/18 05:47:11;;;;;;;;;;;5.00;1.00;;;;;;5041520;28;20026;-86
2024/02/18 05:49:38;;;;;;;;;;;5.00;37.10;;;;;;5041276;28;20370;-87
2024/02/18 05:52:06;;;;;;;;;;;4.90;1.00;;;;;;5041044;28;20503;-87
2024/02/18 05:54:33;;;;;;;;;;;5.00;1.00;;;;;;5040772;28;19972;-87
2024/02/18 05:56:59;;;;;;;;;;;5.00;62.90;;;;;;5048174;28;19961;-87
2024/02/18 05:59:26;;;;;;;;;;;5.10;15.90;;;;;;5057899;28;19939;-88
2024/02/18 06:01:53;;;;;;;;;;;4.90;47.50;;;;;;5049444;28;20007;-90
2024/02/18 06:04:19;;;;;;;;;;;4.50;99.90;;;;;;5045631;28;19969;-89
2024/02/18 06:06:47;;;;;;;;;;;;;;;;;;5053098;28;19936;-88
2024/02/18 06:09:14;;;;;;;;;;;;;;;;;;5049939;28;19935;-88
2024/02/18 06:11:42;;;;;;;;;;;4.60;99.90;;;;;;5047621;28;19966;-87
2024/02/18 06:14:08;;;;;;;;;;;4.80;99.90;;;;;;5046909;28;20482;-87
2024/02/18 06:16:35;;;;;;;;;;;4.70;99.90;;;;;;5048284;28;20417;-87
2024/02/18 06:19:02;;;;;;;;;;;4.60;1.00;;;;;;5044247;28;19959;-87
2024/02/18 06:21:28;;;;;;;;;;;4.70;99.90;;;;;;5042594;28;19941;-87
2024/02/18 06:23:56;;;;;;;;;;;4.70;99.90;;;;;;5053685;28;19938;-88
2024/02/18 06:26:23;;;;;;;;;;;4.60;1.00;;;;;;5043957;28;19921;-87
2024/02/18 06:28:51;;;;;;;;;;;;;;;;;;5051353;28;19965;-88
2024/02/18 06:31:18;;;;;;;;;;;;;;;;;;5059008;28;19927;-86
2024/02/18 06:33:46;;;;;;;;;;;4.70;99.90;;;;;;5057871;28;19955;-86
2024/02/18 06:36:14;;;;;;;;;;;5.00;1.00;;;;;;5059366;28;19931;-87
2024/02/18 06:38:41;;;;;;;;;;;4.60;1.00;;;;;;5058992;28;19960;-87
2024/02/18 06:41:08;;;;;;;;;;;4.60;1.00;;;;;;5057961;28;19955;-88
2024/02/18 06:46:08;;;;;;;;;;;4.70;1.00;;;;;;5055240;28;19937;-85
2024/02/18 06:48:35;;;;;;;;;;;4.60;1.00;;;;;;5057997;28;19948;-85
2024/02/18 06:51:03;;;;;;;;;;;4.90;99.90;;;;;;5057742;28;19932;-86
2024/02/18 06:53:30;;;;;;;;;;;4.90;99.90;;;;;;5057699;28;20009;-86
2024/02/18 06:55:57;;;;;;;;;;;4.70;99.90;;;;;;5057749;28;19937;-86
2024/02/18 06:58:23;;;;;;;;;;;4.70;99.90;;;;;;5057995;28;19993;-86
2024/02/18 07:00:50;;;;;;;;;;;4.80;1.00;;;;;;5058724;28;19939;-85
2024/02/18 07:03:16;;;;;;;;;;;4.90;1.00;;;;;;5059211;28;19931;-86
2024/02/18 07:05:43;;;;;;;;;;;4.90;99.90;;;;;;5058763;28;19940;-85
2024/02/18 07:08:12;;;;;;;;;;;5.00;1.00;;;;;;5058993;28;19926;-85
2024/02/18 07:10:39;;;;;;;;;;;4.90;1.00;;;;;;5058347;28;19905;-85
2024/02/18 07:13:07;;;;;;;;;;;4.80;99.90;;;;;;5057808;28;19968;-86
2024/02/18 07:15:34;;;;;;;;;;;4.90;1.00;;;;;;5057824;28;19932;-85
2024/02/18 07:18:01;;;;;;;;;;;4.90;1.00;;;;;;5058492;28;19948;-85
2024/02/18 07:20:27;;;;;;;;;;;5.00;1.00;;;;;;5058534;28;19970;-85
2024/02/18 07:22:54;;;;;;;;;;;5.50;1.00;;;;;;5051752;28;20007;-85
2024/02/18 07:25:22;;;;;;;;;;;5.10;99.90;;;;;;5048631;28;19955;-86
2024/02/18 07:27:49;;;;;;;;;;;5.20;99.90;;;;;;5052420;28;19937;-86
2024/02/18 07:30:15;;;;;;;;;;;5.20;99.90;;;;;;5053322;28;19925;-87
2024/02/18 07:32:42;;;;;;;;;;;5.30;99.90;;;;;;5053290;28;19959;-87
2024/02/18 07:35:09;;;;;;;;;;;5.30;99.90;;;;;;5047551;28;19996;-86
2024/02/18 07:37:36;;;;;;;;;;;5.20;99.90;;;;;;5045802;28;19989;-86
2024/02/18 07:40:02;;;;;;;;;;;5.30;99.90;;;;;;5050129;28;19940;-86
2024/02/18 07:42:30;;;;;;;;;;;;;;;;;;5043993;28;19978;-87
2024/02/18 07:44:57;;;;;;;;;;;;;;;;;;5053827;28;19988;-87
2024/02/18 07:47:25;;;;;;;;;;;;;;;;;;5043838;28;20042;-87
2024/02/18 07:49:52;;;;;;;;;;;;;;;;;;5045186;28;19940;-87
2024/02/18 07:52:20;;;;;;;;;;;;;;;;;;5048545;28;19979;-87
2024/02/18 07:54:47;;;;;;;;;;;;;;;;;;5047223;28;20340;-86
2024/02/18 07:57:14;;;;;;;;;;;;;;;;;;5047207;28;19999;-86
2024/02/18 07:59:41;;;;;;;;;;;;;;;;;;5047005;28;19959;-86
2024/02/18 08:02:09;;;;;;;;;;;;;;;;;;5047345;28;19953;-86
2024/02/18 08:04:36;;;;;;;;;;;;;;;;;;5048001;28;19921;-86
2024/02/18 08:07:03;;;;;;;;;;;;;;;;;;5046498;28;20330;-86
2024/02/18 08:09:30;;;;;;;;;;;;;;;;;;5047234;28;19939;-86
2024/02/18 08:11:57;;;;;;;;;;;;;;;;;;5050043;28;20370;-87
2024/02/18 08:14:24;;;;;;;;;;;;;;;;;;5048866;28;20358;-87
2024/02/18 08:16:52;;;;;;;;;;;;;;;;;;5045927;28;20472;-87
2024/02/18 08:19:19;;;;;;;;;;;;;;;;;;5045210;28;19975;-87
2024/02/18 08:21:46;;;;;;;;;;;;;;;;;;5044110;28;19966;-87
2024/02/18 08:24:14;;;;;;;;;;;;;;;;;;5045054;28;19997;-87
2024/02/18 08:26:41;;;;;;;;;;;;;;;;;;5054801;28;19980;-87
2024/02/18 08:29:08;;;;;;;;;;;;;;;;;;5060202;28;19983;-86
2024/02/18 08:31:35;;;;;;;;;;;;;;;;;;5060880;28;19967;-86
2024/02/18 08:34:03;;;;;;;;;;;;;;;;;;5051970;28;19925;-87
2024/02/18 08:36:30;;;;;;;;;;;;;;;;;;5051069;28;19941;-87
2024/02/18 08:38:57;;;;;;;;;;;;;;;;;;5049310;28;19937;-87
2024/02/18 08:41:25;;;;;;;;;;;;;;;;;;5059345;28;19955;-85
2024/02/18 08:43:53;;;;;;;;;;;6.30;99.90;;;;;;5055530;28;19962;-87
2024/02/18 08:46:20;;;;;;;;;;;;;;;;;;5055746;28;19921;-87
2024/02/18 08:48:47;;;;;;;;;;;;;;;;;;5055605;28;19944;-87
2024/02/18 08:51:14;;;;;;;;;;;6.30;99.90;;;;;;5049879;28;19953;-87
2024/02/18 08:53:41;;;;;;;;;;;6.30;99.90;;;;;;5050670;28;19968;-87
2024/02/18 08:56:12;;;;;;;;;;;6.20;99.90;;;;;;5057441;28;19943;-87
2024/02/18 08:58:39;;;;;;;;;;;6.30;99.90;;;;;;5058585;28;19937;-86
2024/02/18 09:01:11;;;;;;;;;;;6.40;1.00;;;;;;5059322;28;19965;-87
2024/02/18 09:03:38;;;;;;;;;;;6.40;99.90;;;;;;5050474;28;19924;-87
2024/02/18 09:06:07;;;;;;;;;;;6.50;99.90;;;;;;5044813;28;20387;-86
2024/02/18 09:08:36;;;;;;;;;;;6.60;99.90;;;;;;5046661;28;19961;-87
2024/02/18 09:11:03;;;;;;;;;;;6.80;99.90;;;;;;5044208;28;20401;-88
2024/02/18 09:13:30;;;;;;;;;;;6.60;99.90;;;;;;5043638;28;19952;-86
2024/02/18 09:15:57;;;;;;;;;;;6.60;99.90;;;;;;5056138;28;19964;-88
2024/02/18 09:18:25;;;;;;;;;;;5.90;99.90;;;;;;5054360;28;19905;-85
2024/02/18 09:20:52;;;;;;;;;;;6.70;99.90;;;;;;5060436;28;19927;-83
2024/02/18 09:23:19;;;;;;;;;;;6.70;99.90;;;;;;5060687;28;19960;-85
2024/02/18 09:25:47;;;;;;;;;;;6.70;99.90;;;;;;5051927;28;20008;-87
2024/02/18 09:28:14;;;;;;;;;;;6.60;99.90;;;;;;5049170;28;19928;-88
2024/02/18 09:30:44;;;;;;;;;;;6.70;99.90;;;;;;5047245;28;19944;-87
2024/02/18 09:33:13;;;;;;;;;;;6.80;99.90;;;;;;5045441;28;19954;-87
2024/02/18 09:35:45;;;;;;;;;;;6.80;99.90;;;;;;5046598;28;19967;-87
2024/02/18 09:38:12;;;;;;;;;;;6.90;99.90;;;;;;5046036;28;19931;-87
2024/02/18 09:40:39;;;;;;;;;;;6.90;99.90;;;;;;5047364;28;19946;-87
2024/02/18 09:43:05;;;;;;;;;;;6.90;99.90;;;;;;5045406;28;19939;-87
2024/02/18 09:45:36;;;;;;;;;;;6.80;99.90;;;;;;5041914;28;19966;-87
2024/02/18 09:48:06;;;;;;;;;;;6.90;1.00;;;;;;5040720;28;19963;-87
2024/02/18 09:50:36;;;;;;;;;;;7.00;1.00;;;;;;5040492;28;19940;-88
2024/02/18 09:53:07;;;;;;;;;;;7.40;99.90;;;;;;5041135;28;19941;-87
2024/02/18 09:55:35;;;;;;;;;;;;;;;;;;5041406;28;19958;-87
2024/02/18 09:58:06;;;;;;;;;;;7.00;99.90;;;;;;5041320;28;20009;-87
2024/02/18 10:00:33;;;;;;;;;;;7.10;99.90;;;;;;5045119;28;19939;-87
2024/02/18 10:03:00;;;;;;;;;;;6.80;1.00;;;;;;5040550;28;19960;-87
2024/02/18 10:05:30;;;;;;;;;;;7.10;99.90;;;;;;5044330;28;19928;-87
2024/02/18 10:08:02;;;;;;;;;;;7.00;99.90;;;;;;5046456;28;20425;-87
2024/02/18 10:10:33;;;;;;;;;;;7.20;99.90;;;;;;5046408;28;19952;-87
2024/02/18 10:13:01;;;;;;;;;;;7.20;99.90;;;;;;5046955;28;19927;-86
2024/02/18 10:15:33;;;;;;;;;;;7.30;99.90;;;;;;5057818;28;19959;-86
2024/02/18 10:18:00;;;;;;;;;;;7.30;99.90;;;;;;5045602;28;19974;-86
2024/02/18 10:20:27;;;;;;;;;;;7.40;99.90;;;;;;5045074;28;19944;-87
2024/02/18 10:22:54;;;;;;;;;;;7.50;99.90;;;;;;5042125;28;20034;-87
2024/02/18 10:25:21;;;;;;;;;;;7.60;99.90;;;;;;5041403;28;19995;-87
2024/02/18 10:27:49;;;;;;;;;;;7.50;99.90;;;;;;5041304;28;19944;-87
2024/02/18 10:30:18;;;;;;;;;;;7.30;99.90;;;;;;5045723;28;20019;-87
2024/02/18 10:32:45;;;;;;;;;;;7.90;99.90;;;;;;5056296;28;19963;-87
2024/02/18 10:35:12;;;;;;;;;;;7.70;99.90;;;;;;5046045;28;19961;-87
2024/02/18 10:37:40;;;;;;;;;;;7.80;99.90;;;;;;5053509;28;19967;-87
2024/02/18 10:40:09;;;;;;;;;;;7.80;99.90;;;;;;5053754;28;19960;-87
2024/02/18 10:42:37;;;;;;;;;;;7.90;99.90;;;;;;5051312;28;20009;-87
2024/02/18 10:45:06;;;;;;;;;;;7.90;99.90;;;;;;5041458;28;20013;-86
2024/02/18 10:47:35;;;;;;;;;;;7.90;99.90;;;;;;5042347;28;19962;-86
2024/02/18 10:50:09;;;;;;;;;;;7.90;99.90;;;;;;5056470;28;19954;-86
2024/02/18 10:52:44;;;;;;;;;;;8.00;99.90;;;;;;5055224;28;19921;-86
2024/02/18 10:55:13;;;;;;;;;;;8.10;99.90;;;;;;5054595;28;20049;-87
2024/02/18 10:57:43;;;;;;;;;;;8.10;99.90;;;;;;5053409;28;19905;-85
2024/02/18 11:00:17;;;;;;;;;;;8.30;99.90;;;;;;5059125;28;19927;-85
2024/02/18 11:02:49;;;;;;;;;;;8.30;99.90;;;;;;5056060;28;19928;-87
2024/02/18 11:05:21;;;;;;;;;;;8.40;99.90;;;;;;5051054;28;19928;-87
2024/02/18 11:07:49;;;;;;;;;;;8.40;99.90;;;;;;5044790;28;19948;-87
2024/02/18 11:10:18;;;;;;;;;;;;;;;;;;5050231;28;19941;-87
2024/02/18 11:12:47;;;;;;;;;;;8.80;99.90;;;;;;5041616;28;19921;-86
2024/02/18 11:15:16;;;;;;;;;;;;;;;;;;5039106;28;19975;-87
2024/02/18 11:17:44;;;;;;;;;;;;;;;;;;5040589;28;19921;-86
2024/02/18 11:20:11;;;;;;;;;;;;;;;;;;5046996;28;19963;-87
2024/02/18 11:22:38;;;;;;;;;;;;;;;;;;5047249;28;19949;-86
2024/02/18 11:25:05;;;;;;;;;;;;;;;;;;5047684;28;19925;-86
2024/02/18 11:27:33;;;;;;;;;;;;;;;;;;5049186;28;20028;-87
2024/02/18 11:30:07;;;;;;;;;;;;;;;;;;5049809;28;19935;-87
2024/02/18 11:35:20;;;;;;;;;;;;;;;;;;5197747;22;20372;-87
2024/02/18 11:37:47;;;;;;;;;;;;;;;;;;5047944;28;19942;-86
2024/02/18 11:40:17;;;;;;;;;;;;;;;;;;5046770;28;19960;-87
2024/02/18 11:42:45;;;;;;;;;;;;;;;;;;5045770;28;19988;-86
2024/02/18 11:45:13;;;;;;;;;;;;;;;;;;5046800;28;19952;-86
2024/02/18 11:47:40;;;;;;;;;;;;;;;;;;5047881;28;20408;-86
2024/02/18 12:49:51;;;;;;;;;;;;;;;;;;5354590;22;19954;-87
2024/02/18 12:52:19;;;;;;;;;;;;;;;;;;5058308;28;19921;-87
2024/02/18 12:54:46;;;;;;;;;;;;;;;;;;5053306;28;20027;-87
2024/02/18 12:57:13;;;;;;;;;;;;;;;;;;5052495;28;20048;-88
2024/02/18 12:59:40;;;;;;;;;;;;;;;;;;5053557;28;19965;-87
2024/02/18 13:02:07;;;;;;;;;;;;;;;;;;5053308;28;19943;-87
2024/02/18 14:33:40;;;;;;;;;;;;;;;;;;6081980;22;19919;-86
2024/02/18 14:36:09;;;;;;;;;;;;;;;;;;5046294;28;20023;-88
2024/02/18 14:38:37;;;;;;;;;;;;;;;;;;5049068;28;19939;-87
2024/02/18 14:41:04;;;;;;;;;;;;;;;;;;5051145;28;19986;-88
2024/02/18 14:43:31;;;;;;;;;;;;;;;;;;5049596;28;19944;-88
2024/02/18 14:45:59;;;;;;;;;;;;;;;;;;5048164;28;19959;-86
2024/02/18 16:59:03;;;;;;;;;;;;;;;;;;5046124;28;19936;-89
2024/02/18 17:31:18;;;;;;;;;;;;;;;;;;;;;
2024/02/18 19:44:56;;;;;;;;;;;10.10;1.00;;;;;;4934265;28;19933;-85
2024/02/18 19:50:10;;;;;;;;;;;9.40;1.00;;;;;;5009268;28;19961;-85
2024/02/18 19:52:46;;;;;;;;;;;8.60;1.00;;;;;;5034040;28;19980;-84
2024/02/18 19:55:13;;;;;;;;;;;9.40;1.00;;;;;;5036019;28;19951;-83
2024/02/18 20:49:40;;;;;;;;;;;9.30;18.70;;;;;;4941627;29;19943;-88
2024/02/18 21:06:57;;;;;;;;;;;;;;;;;;;;;
2024/02/18 21:21:47;;;;;;;;;;;;;;;;;;;;;
2024/02/18 21:27:47;;;;;;;;;;;8.50;99.90;;;;;;5031385;28;20036;-87
2024/02/18 21:43:13;;;;;;;;;;;8.50;1.00;;;;;;5039183;28;19921;-88
2024/02/18 21:46:12;;;;;;;;;;;8.50;1.00;;;;;;4960583;29;20330;-88
2024/02/18 22:01:21;;;;;;;;;;;9.00;1.00;;;;;;4990394;28;20047;-87
2024/02/18 22:10:41;;;;;;;;;;;;;;;;;;;;;
2024/02/18 22:13:28;;;;;;;;;;;8.30;1.00;;;;;;4983493;28;20058;-88
2024/02/18 22:52:56;;;;;;;;;;;8.10;92.00;;;;;;5016846;22;19966;-87
2024/02/18 22:55:22;;;;;;;;;;;8.60;93.30;;;;;;5043075;28;19961;-87
2024/02/18 22:57:49;;;;;;;;;;;8.40;99.90;;;;;;5047105;28;19961;-87
2024/02/18 23:00:18;;;;;;;;;;;8.50;99.90;;;;;;5053653;28;20010;-87
2024/02/18 23:02:45;;;;;;;;;;;8.40;99.90;;;;;;5052733;28;20448;-88
2024/02/18 23:05:12;;;;;;;;;;;8.90;99.90;;;;;;5049052;28;19963;-88
2024/02/18 23:07:42;;;;;;;;;;;8.40;99.90;;;;;;5050972;28;20015;-87
2024/02/18 23:10:09;;;;;;;;;;;8.40;99.90;;;;;;5049012;28;20385;-87
2024/02/18 23:12:36;;;;;;;;;;;8.40;99.90;;;;;;5045028;28;19995;-86
2024/02/18 23:15:02;;;;;;;;;;;8.30;99.90;;;;;;5040746;28;20331;-87
2024/02/18 23:17:30;;;;;;;;;;;8.40;99.90;;;;;;5039143;28;19999;-87
2024/02/18 23:19:57;;;;;;;;;;;8.40;99.90;;;;;;5041167;28;20034;-87
2024/02/18 23:22:24;;;;;;;;;;;8.40;99.90;;;;;;5058587;28;19970;-86
2024/02/18 23:24:50;;;;;;;;;;;8.40;99.90;;;;;;5059699;28;19921;-87
2024/02/18 23:27:17;;;;;;;;;;;8.30;99.90;;;;;;5059276;28;19948;-89
2024/02/18 23:29:44;;;;;;;;;;;8.30;99.90;;;;;;5060156;28;19966;-88
2024/02/18 23:32:10;;;;;;;;;;;8.30;99.90;;;;;;5056441;28;19953;-86
2024/02/18 23:34:38;;;;;;;;;;;8.40;99.90;;;;;;5053231;28;19928;-86
2024/02/18 23:37:05;;;;;;;;;;;8.20;99.90;;;;;;5060766;28;19991;-87
2024/02/18 23:39:34;;;;;;;;;;;8.40;99.90;;;;;;5050334;28;19963;-87
2024/02/18 23:42:01;;;;;;;;;;;8.50;99.90;;;;;;5043704;28;19925;-88
2024/02/18 23:44:27;;;;;;;;;;;8.30;99.90;;;;;;5043189;28;19961;-87
2024/02/18 23:46:54;;;;;;;;;;;8.20;99.90;;;;;;5043016;28;20073;-88
2024/02/18 23:49:22;;;;;;;;;;;8.60;99.90;;;;;;5042782;28;19939;-87
2024/02/18 23:51:50;;;;;;;;;;;8.30;99.90;;;;;;5041712;28;20013;-87
2024/02/18 23:54:17;;;;;;;;;;;8.20;99.90;;;;;;5043949;28;19974;-87
2024/02/18 23:56:44;;;;;;;;;;;8.30;99.90;;;;;;5051026;28;19921;-88
2024/02/18 23:59:11;;;;;;;;;;;8.30;99.90;;;;;;5043301;28;19963;-87
